Portada
METAR-TAF:

METAR-TAF

Aeroports :

Txeliàbinsk, Rússia

latitud: 55-10N, longitud: 061-24E, altitud: 234 m

Observació

L'informe es va fer fa 30 minuts, a les 08:30 UTC
Vent 10 kt del Sud/Sud-Est, variant entre Est/Sud-Est i Sud/Sud-Oest
Temperatura 25°C
Humitat 17%
Pressió 1024 hPa
Visibilitat 10 km o més
sense núvols per sota de 1500 mi sense presència de cumulonimbus.

METAR: USCC 060830Z 16005MPS 120V210 CAVOK 25/M02 Q1024 R27/000060 NOSIG RMK QFE748

Hora: 14:00 (09:00 UTC)

Pronòstic

L'informe es va fer fa 1 hora i 0 minuts, a les 08:00 UTC
Pronòstic vàlid del 06 a les 09 UTC al 07 a les 09 UTC
Vent 6 kt del Sud amb ràfegues de 16 kt
Visibilitat 10 km o més
sense núvols per sota de 1500 mi sense presència de cumulonimbus.
Temporalment
l' 06 a les 09 UTC al 06 a les 16 UTC
Vent 10 kt del Sud-Est amb ràfegues de 23 kt

TAF: USCC 060800Z 0609/0709 18003G08MPS CAVOK TEMPO 0609/0616 14005G12MPS

Observacions i pronòstics meteorològics de més de 4000 aeroports (METAR i TAF).

Les estacions disponibles són els punts grocs i vermells al mapa.

Posi el ratolí al punt desitjat per veure el nom de l'estació.

Feu clic per veure les observacions i els pronòstics meteorològics.

Per canviar el mapa: feu clic els botons verds amb una creu de color negre per apropar; al botó verd amb un guió per allunyar la imatge; o en les fletxes verdes per a mapes adjacents.


METAR-TAF: